Time;durP1;ratioP1;P1;durP2;ratioP2;P2;SDS_P1;SDS_P2;PMS_P1;PMS_P2;Temp;Humidity;BMP_temperature;BMP_pressure;BME280_temperature;BME280_humidity;BME280_pressure;Samples;Min_cycle;Max_cycle;Signal;HPM_P1;HPM_P2
2022/07/12 00:02:16;;;;;;;5.90;3.85;;;;;;;;;;4917819;29;20052;-67
2022/07/12 00:04:42;;;;;;;3.42;2.97;;;;;;;;;;4899233;29;20048;-67
2022/07/12 00:07:09;;;;;;;3.10;2.80;;;;;;;;;;4898896;29;20532;-67
2022/07/12 00:09:36;;;;;;;3.55;2.78;;;;;;;;;;4898806;29;20432;-67
2022/07/12 00:12:03;;;;;;;5.47;3.20;;;;;;;;;;4898921;29;20480;-67
2022/07/12 00:14:29;;;;;;;4.65;2.60;;;;;;;;;;4898770;29;20054;-67
2022/07/12 00:16:56;;;;;;;6.90;3.10;;;;;;;;;;4897479;29;20063;-67
2022/07/12 00:19:23;;;;;;;3.40;3.10;;;;;;;;;;4897871;29;20060;-67
2022/07/12 00:21:49;;;;;;;4.25;3.20;;;;;;;;;;4898552;29;20056;-67
2022/07/12 00:24:16;;;;;;;3.72;2.85;;;;;;;;;;4898673;29;20048;-67
2022/07/12 00:26:43;;;;;;;2.88;2.45;;;;;;;;;;4898664;29;20059;-67
2022/07/12 00:29:10;;;;;;;3.42;2.75;;;;;;;;;;4898454;29;20072;-67
2022/07/12 00:31:36;;;;;;;2.97;2.70;;;;;;;;;;4913814;29;20522;-66
2022/07/12 00:34:03;;;;;;;5.07;2.72;;;;;;;;;;4898669;29;20051;-67
2022/07/12 00:36:30;;;;;;;3.15;2.45;;;;;;;;;;4898579;29;20049;-66
2022/07/12 00:38:57;;;;;;;2.42;2.22;;;;;;;;;;4898410;29;20053;-67
2022/07/12 00:41:23;;;;;;;3.38;2.30;;;;;;;;;;4898461;29;20072;-67
2022/07/12 00:43:50;;;;;;;2.70;2.40;;;;;;;;;;4903459;29;20048;-67
2022/07/12 00:46:21;;;;;;;3.13;2.17;;;;;;;;;;4916985;29;20056;-67
2022/07/12 00:48:47;;;;;;;2.70;2.40;;;;;;;;;;4915912;29;20060;-67
2022/07/12 00:51:15;;;;;;;3.05;2.42;;;;;;;;;;4916956;29;20052;-67
2022/07/12 00:53:42;;;;;;;2.90;2.55;;;;;;;;;;4900236;29;20059;-67
2022/07/12 00:56:08;;;;;;;2.85;2.65;;;;;;;;;;4915930;29;20056;-67
2022/07/12 00:58:35;;;;;;;3.20;2.90;;;;;;;;;;4896338;29;20052;-67
2022/07/12 01:01:02;;;;;;;3.85;3.55;;;;;;;;;;4897797;29;20053;-67
2022/07/12 01:03:28;;;;;;;2.90;2.70;;;;;;;;;;4896864;29;20095;-67
2022/07/12 01:05:55;;;;;;;5.78;3.10;;;;;;;;;;4897840;29;20048;-67
2022/07/12 01:08:22;;;;;;;5.20;2.78;;;;;;;;;;4897578;29;20519;-67
2022/07/12 01:10:51;;;;;;;3.20;2.90;;;;;;;;;;4896476;29;20143;-67
2022/07/12 01:13:18;;;;;;;4.50;2.47;;;;;;;;;;4906347;29;20048;-67
2022/07/12 01:15:45;;;;;;;2.90;2.70;;;;;;;;;;4916359;29;20135;-67
2022/07/12 01:18:11;;;;;;;2.90;2.70;;;;;;;;;;4916298;29;20083;-67
2022/07/12 01:20:38;;;;;;;2.92;2.63;;;;;;;;;;4900017;29;20048;-67
2022/07/12 01:23:05;;;;;;;2.53;2.33;;;;;;;;;;4915760;29;20060;-67
2022/07/12 01:25:31;;;;;;;2.78;2.40;;;;;;;;;;4915349;29;20055;-67
2022/07/12 01:27:58;;;;;;;3.05;2.75;;;;;;;;;;4915254;29;20064;-67
2022/07/12 01:30:25;;;;;;;2.72;2.53;;;;;;;;;;4916319;29;20052;-67
2022/07/12 01:32:52;;;;;;;3.42;2.80;;;;;;;;;;4916177;29;20554;-67
2022/07/12 01:35:19;;;;;;;2.60;2.40;;;;;;;;;;4916319;29;20052;-67
2022/07/12 01:37:46;;;;;;;3.17;2.85;;;;;;;;;;4899282;29;20052;-67
2022/07/12 01:40:14;;;;;;;2.78;2.53;;;;;;;;;;4903704;29;20057;-67
2022/07/12 01:42:43;;;;;;;2.90;2.65;;;;;;;;;;4897050;29;20504;-67
2022/07/12 01:45:11;;;;;;;3.33;3.03;;;;;;;;;;4897431;29;20048;-67
2022/07/12 01:47:37;;;;;;;3.15;2.83;;;;;;;;;;4897377;29;20049;-67
2022/07/12 01:50:07;;;;;;;4.05;2.83;;;;;;;;;;4897099;29;20150;-67
2022/07/12 01:52:35;;;;;;;3.25;2.63;;;;;;;;;;4897018;29;20060;-67
2022/07/12 01:55:02;;;;;;;4.25;2.83;;;;;;;;;;4897386;29;20048;-67
2022/07/12 01:57:29;;;;;;;4.90;2.72;;;;;;;;;;4897033;29;20114;-67
2022/07/12 01:59:56;;;;;;;3.47;3.17;;;;;;;;;;4909135;29;20052;-67
2022/07/12 02:02:25;;;;;;;3.80;3.05;;;;;;;;;;4914889;29;20056;-67
2022/07/12 02:04:54;;;;;;;3.13;2.80;;;;;;;;;;4915807;29;20474;-67
2022/07/12 02:07:23;;;;;;;3.08;2.78;;;;;;;;;;4915768;29;20056;-67
2022/07/12 02:09:49;;;;;;;3.20;2.90;;;;;;;;;;4915477;29;20515;-67
2022/07/12 02:12:16;;;;;;;4.10;2.80;;;;;;;;;;4915678;29;20056;-67
2022/07/12 02:14:42;;;;;;;3.58;2.80;;;;;;;;;;4915173;29;20052;-67
2022/07/12 02:17:09;;;;;;;3.20;2.88;;;;;;;;;;4915697;29;20058;-67
2022/07/12 02:19:35;;;;;;;2.90;2.70;;;;;;;;;;4915487;29;20500;-67
2022/07/12 02:22:02;;;;;;;3.08;2.55;;;;;;;;;;4915739;29;20492;-67
2022/07/12 02:24:29;;;;;;;3.63;2.80;;;;;;;;;;4900372;29;20064;-67
2022/07/12 02:26:56;;;;;;;3.25;2.90;;;;;;;;;;4896727;29;20057;-67
2022/07/12 02:29:22;;;;;;;5.32;2.97;;;;;;;;;;4896641;29;20429;-67
2022/07/12 02:31:50;;;;;;;4.45;3.17;;;;;;;;;;4896806;29;20071;-67
2022/07/12 02:34:16;;;;;;;3.60;3.30;;;;;;;;;;4896486;29;20049;-67
2022/07/12 02:36:43;;;;;;;2.78;2.58;;;;;;;;;;4896626;29;20058;-67
2022/07/12 02:39:11;;;;;;;3.75;2.88;;;;;;;;;;4896432;29;20060;-67
2022/07/12 02:41:37;;;;;;;3.65;2.80;;;;;;;;;;4896613;29;20057;-67
2022/07/12 02:44:04;;;;;;;3.30;3.10;;;;;;;;;;4899709;29;20531;-67
2022/07/12 02:46:31;;;;;;;2.95;2.72;;;;;;;;;;4900697;29;20067;-67
2022/07/12 02:48:58;;;;;;;3.33;3.03;;;;;;;;;;4900181;29;20059;-67
2022/07/12 02:51:24;;;;;;;2.97;2.78;;;;;;;;;;4913750;29;20130;-67
2022/07/12 02:53:51;;;;;;;5.75;4.47;;;;;;;;;;4919226;29;20409;-67
2022/07/12 02:56:18;;;;;;;4.28;3.88;;;;;;;;;;4919007;29;20507;-67
2022/07/12 02:58:45;;;;;;;4.00;3.67;;;;;;;;;;4918788;29;20464;-67
2022/07/12 03:01:13;;;;;;;5.40;3.50;;;;;;;;;;4919013;29;20063;-67
2022/07/12 03:03:39;;;;;;;3.53;3.22;;;;;;;;;;4918946;29;20052;-67
2022/07/12 03:06:06;;;;;;;3.70;3.05;;;;;;;;;;4917509;29;20052;-67
2022/07/12 03:08:33;;;;;;;3.90;3.30;;;;;;;;;;4918647;29;20061;-67
2022/07/12 03:11:00;;;;;;;3.75;3.45;;;;;;;;;;4918781;29;20051;-67
2022/07/12 03:13:27;;;;;;;3.58;3.28;;;;;;;;;;4918661;29;20522;-66
2022/07/12 03:15:53;;;;;;;3.88;3.58;;;;;;;;;;4918695;29;20055;-66
2022/07/12 03:18:20;;;;;;;5.38;3.20;;;;;;;;;;4918537;29;20091;-67
2022/07/12 03:20:48;;;;;;;3.22;2.95;;;;;;;;;;4910219;29;20055;-67
2022/07/12 03:23:15;;;;;;;4.18;3.17;;;;;;;;;;4900645;29;20472;-66
2022/07/12 03:25:42;;;;;;;3.42;3.17;;;;;;;;;;4899974;29;20068;-67
2022/07/12 03:28:09;;;;;;;5.22;3.30;;;;;;;;;;4899628;29;20057;-67
2022/07/12 03:30:36;;;;;;;4.95;4.03;;;;;;;;;;4899887;29;20060;-67
2022/07/12 03:33:03;;;;;;;6.10;5.53;;;;;;;;;;4899437;29;20131;-67
2022/07/12 03:35:29;;;;;;;5.88;4.70;;;;;;;;;;4898499;29;20416;-67
2022/07/12 03:37:56;;;;;;;4.15;3.85;;;;;;;;;;4899377;29;20523;-67
2022/07/12 03:40:22;;;;;;;4.80;3.92;;;;;;;;;;4903997;29;20064;-67
2022/07/12 03:42:51;;;;;;;4.22;3.83;;;;;;;;;;4899630;29;20056;-67
2022/07/12 03:45:18;;;;;;;4.47;4.10;;;;;;;;;;4905374;29;20044;-67
2022/07/12 03:47:45;;;;;;;4.85;3.55;;;;;;;;;;4918148;29;20119;-67
2022/07/12 03:50:12;;;;;;;4.68;3.67;;;;;;;;;;4907689;29;20539;-67
2022/07/12 03:52:40;;;;;;;5.63;3.30;;;;;;;;;;4899081;29;20101;-67
2022/07/12 03:55:08;;;;;;;4.50;3.20;;;;;;;;;;4899176;29;20140;-67
2022/07/12 03:57:35;;;;;;;3.65;3.35;;;;;;;;;;4899202;29;20060;-67
2022/07/12 04:00:04;;;;;;;3.70;3.35;;;;;;;;;;4899044;29;20057;-67
2022/07/12 04:02:31;;;;;;;4.65;3.05;;;;;;;;;;4899193;29;20278;-67
2022/07/12 04:04:57;;;;;;;4.50;3.35;;;;;;;;;;4899350;29;20058;-67
2022/07/12 04:07:24;;;;;;;5.68;3.28;;;;;;;;;;4899086;29;20049;-67
2022/07/12 04:09:51;;;;;;;3.40;3.10;;;;;;;;;;4898715;29;20420;-67
2022/07/12 04:12:17;;;;;;;4.13;3.33;;;;;;;;;;4898684;29;20056;-67
2022/07/12 04:14:44;;;;;;;3.80;3.22;;;;;;;;;;4898447;29;20489;-67
2022/07/12 04:17:10;;;;;;;3.15;2.95;;;;;;;;;;4898703;29;20056;-67
2022/07/12 04:19:37;;;;;;;2.90;2.70;;;;;;;;;;4898756;29;20083;-67
2022/07/12 04:22:04;;;;;;;3.53;3.22;;;;;;;;;;4900936;29;20048;-67
2022/07/12 04:24:30;;;;;;;5.35;3.30;;;;;;;;;;4917592;29;20048;-67
2022/07/12 04:26:57;;;;;;;3.53;3.20;;;;;;;;;;4917387;29;20113;-67
2022/07/12 04:29:23;;;;;;;4.68;3.35;;;;;;;;;;4917092;29;20058;-67
2022/07/12 04:31:50;;;;;;;3.55;3.25;;;;;;;;;;4916894;29;20060;-67
2022/07/12 04:34:17;;;;;;;4.22;3.65;;;;;;;;;;4905378;29;20053;-67
2022/07/12 04:36:44;;;;;;;5.10;4.35;;;;;;;;;;4898286;29;20048;-67
2022/07/12 04:39:11;;;;;;;3.53;3.22;;;;;;;;;;4898298;29;20078;-67
2022/07/12 04:41:38;;;;;;;6.97;3.78;;;;;;;;;;4898290;29;20056;-67
2022/07/12 04:44:05;;;;;;;4.00;3.63;;;;;;;;;;4898077;29;20052;-67
2022/07/12 04:46:32;;;;;;;4.25;3.85;;;;;;;;;;4897363;29;20048;-67
2022/07/12 04:49:00;;;;;;;4.30;3.90;;;;;;;;;;4898126;29;20139;-67
2022/07/12 04:51:27;;;;;;;5.90;4.03;;;;;;;;;;4902648;29;20401;-67
2022/07/12 04:53:53;;;;;;;4.50;4.10;;;;;;;;;;4916998;29;20115;-67
2022/07/12 04:56:20;;;;;;;4.95;4.32;;;;;;;;;;4916650;29;20048;-67
2022/07/12 04:58:47;;;;;;;4.63;4.00;;;;;;;;;;4916884;29;20052;-67
2022/07/12 05:01:14;;;;;;;4.60;4.20;;;;;;;;;;4916943;29;20048;-67
2022/07/12 05:03:41;;;;;;;4.53;3.85;;;;;;;;;;4916702;29;20136;-67
2022/07/12 05:06:08;;;;;;;6.00;4.30;;;;;;;;;;4916324;29;20048;-67
2022/07/12 05:08:35;;;;;;;4.57;4.18;;;;;;;;;;4916562;29;20135;-67
2022/07/12 05:11:01;;;;;;;8.00;5.10;;;;;;;;;;4915899;29;20059;-67
2022/07/12 05:13:28;;;;;;;6.88;4.03;;;;;;;;;;4916712;29;20063;-66
2022/07/12 05:15:55;;;;;;;6.03;5.15;;;;;;;;;;4916415;29;20060;-67
2022/07/12 05:18:21;;;;;;;6.40;5.07;;;;;;;;;;4914621;29;20052;-67
2022/07/12 05:20:48;;;;;;;7.65;4.60;;;;;;;;;;4912685;29;20048;-67
2022/07/12 05:23:18;;;;;;;4.60;4.20;;;;;;;;;;4916450;29;20530;-67
2022/07/12 05:25:45;;;;;;;4.40;3.78;;;;;;;;;;4912059;29;20057;-67
2022/07/12 05:28:14;;;;;;;6.25;4.18;;;;;;;;;;4897482;29;20049;-66
2022/07/12 05:30:41;;;;;;;5.13;3.80;;;;;;;;;;4897645;29;20056;-67
2022/07/12 05:33:08;;;;;;;4.13;3.55;;;;;;;;;;4896396;29;20054;-67
2022/07/12 05:35:35;;;;;;;4.72;3.63;;;;;;;;;;4897251;29;20052;-67
2022/07/12 05:38:02;;;;;;;3.97;3.63;;;;;;;;;;4897062;29;20060;-67
2022/07/12 05:40:29;;;;;;;6.32;4.13;;;;;;;;;;4905776;29;20409;-66
2022/07/12 05:42:56;;;;;;;4.50;3.58;;;;;;;;;;4906574;29;20058;-67
2022/07/12 05:45:23;;;;;;;5.47;3.90;;;;;;;;;;4899867;29;20412;-66
2022/07/12 05:47:49;;;;;;;3.20;2.60;;;;;;;;;;4897350;29;20122;-67
2022/07/12 05:50:16;;;;;;;3.38;3.08;;;;;;;;;;4897209;29;20057;-67
2022/07/12 05:55:28;;;;;;;6.22;3.90;;;;;;;;;;4897025;29;20085;-67
2022/07/12 05:57:54;;;;;;;5.15;3.10;;;;;;;;;;4897071;29;20473;-66
2022/07/12 06:00:21;;;;;;;3.92;3.10;;;;;;;;;;4896971;29;20057;-66
2022/07/12 06:02:48;;;;;;;3.33;2.90;;;;;;;;;;4915369;29;20060;-67
2022/07/12 06:05:16;;;;;;;4.38;2.70;;;;;;;;;;4915876;29;20048;-66
2022/07/12 06:07:42;;;;;;;3.45;2.75;;;;;;;;;;4915769;29;20059;-66
2022/07/12 06:10:09;;;;;;;5.35;3.20;;;;;;;;;;4915771;29;20059;-67
2022/07/12 06:12:37;;;;;;;5.57;2.72;;;;;;;;;;4915624;29;20052;-66
2022/07/12 06:15:06;;;;;;;4.35;2.47;;;;;;;;;;4907621;29;20393;-66
2022/07/12 06:17:33;;;;;;;2.47;1.98;;;;;;;;;;4895835;29;20056;-65
2022/07/12 06:20:01;;;;;;;2.38;2.15;;;;;;;;;;4896881;29;20063;-65
2022/07/12 06:22:27;;;;;;;2.13;2.03;;;;;;;;;;4896643;29;20424;-65
2022/07/12 06:24:54;;;;;;;3.85;2.00;;;;;;;;;;4896773;29;20044;-65
2022/07/12 06:27:21;;;;;;;2.20;2.00;;;;;;;;;;4896423;29;20048;-68
2022/07/12 06:29:50;;;;;;;3.60;2.53;;;;;;;;;;4896399;29;20084;-66
2022/07/12 06:32:17;;;;;;;2.35;2.00;;;;;;;;;;4896469;29;20492;-66
2022/07/12 06:34:44;;;;;;;2.13;1.80;;;;;;;;;;4896567;29;20052;-65
2022/07/12 06:37:12;;;;;;;1.88;1.77;;;;;;;;;;4896763;29;20056;-66
2022/07/12 06:39:39;;;;;;;1.50;1.40;;;;;;;;;;4896522;29;20107;-66
2022/07/12 06:42:06;;;;;;;2.17;1.45;;;;;;;;;;4896426;29;20056;-66
2022/07/12 06:44:33;;;;;;;2.10;1.73;;;;;;;;;;4899649;29;20052;-66
2022/07/12 06:47:00;;;;;;;1.50;1.40;;;;;;;;;;4915329;29;20048;-66
2022/07/12 06:49:26;;;;;;;1.80;1.48;;;;;;;;;;4915502;29;20079;-66
2022/07/12 06:51:53;;;;;;;2.15;1.50;;;;;;;;;;4915567;29;20056;-66
2022/07/12 06:54:20;;;;;;;1.42;1.33;;;;;;;;;;4915367;29;20083;-66
2022/07/12 06:56:46;;;;;;;3.30;1.67;;;;;;;;;;4915275;29;20496;-66
2022/07/12 06:59:13;;;;;;;1.83;1.65;;;;;;;;;;4915020;29;20056;-66
2022/07/12 07:01:42;;;;;;;8.30;2.03;;;;;;;;;;4910883;29;20056;-66
2022/07/12 07:04:08;;;;;;;1.63;1.52;;;;;;;;;;4915297;29;20052;-66
2022/07/12 07:06:35;;;;;;;2.30;1.70;;;;;;;;;;4915377;29;20079;-66
2022/07/12 07:09:02;;;;;;;1.60;1.50;;;;;;;;;;4915040;29;20455;-65
2022/07/12 07:11:28;;;;;;;3.53;1.73;;;;;;;;;;4915289;29;20055;-66
2022/07/12 07:13:55;;;;;;;2.10;1.60;;;;;;;;;;4915117;29;20491;-66
2022/07/12 07:16:24;;;;;;;1.75;1.40;;;;;;;;;;4914145;29;20135;-66
2022/07/12 07:18:50;;;;;;;1.38;1.23;;;;;;;;;;4915173;29;20060;-65
2022/07/12 07:21:17;;;;;;;1.33;0.93;;;;;;;;;;4915300;29;20526;-65
2022/07/12 07:23:44;;;;;;;1.40;1.30;;;;;;;;;;4915043;29;20056;-66
2022/07/12 07:26:11;;;;;;;1.45;1.10;;;;;;;;;;4904078;29;20049;-66
2022/07/12 07:30:52;;;;;;;1.25;1.10;;;;;;;;;;4897022;29;20056;-70
2022/07/12 07:31:24;;;;;;;1.15;1.05;;;;;;;;;;4899646;29;20515;-66
2022/07/12 07:33:50;;;;;;;3.65;0.85;;;;;;;;;;4899733;29;20060;-68
2022/07/12 07:36:17;;;;;;;0.88;0.88;;;;;;;;;;4910529;29;20059;-67
2022/07/12 07:38:44;;;;;;;0.88;0.88;;;;;;;;;;4918312;29;20114;-69
2022/07/12 07:41:10;;;;;;;1.80;0.75;;;;;;;;;;4911134;29;20550;-66
2022/07/12 07:43:37;;;;;;;1.30;0.80;;;;;;;;;;4907095;29;20575;-65
2022/07/12 07:46:04;;;;;;;1.05;0.60;;;;;;;;;;4904788;29;20048;-68
2022/07/12 07:48:31;;;;;;;0.50;0.50;;;;;;;;;;4901745;29;20115;-68
2022/07/12 07:50:58;;;;;;;1.65;0.52;;;;;;;;;;4903945;29;20052;-66
2022/07/12 07:53:26;;;;;;;0.40;0.40;;;;;;;;;;4902494;29;20053;-67
2022/07/12 07:55:52;;;;;;;0.55;0.45;;;;;;;;;;4904764;29;20056;-70
2022/07/12 07:58:20;;;;;;;2.20;0.43;;;;;;;;;;4904906;29;20049;-68
2022/07/12 08:00:50;;;;;;;0.40;0.40;;;;;;;;;;4905994;29;20052;-67
2022/07/12 08:03:18;;;;;;;0.60;0.60;;;;;;;;;;4903524;29;20053;-67
2022/07/12 08:05:46;;;;;;;0.40;0.40;;;;;;;;;;4904488;29;20107;-64
2022/07/12 08:08:14;;;;;;;0.90;0.75;;;;;;;;;;4903646;29;20083;-66
2022/07/12 08:10:41;;;;;;;0.40;0.35;;;;;;;;;;4908351;29;20053;-70
2022/07/12 08:13:08;;;;;;;9.73;0.55;;;;;;;;;;4904373;29;20100;-65
2022/07/12 08:15:35;;;;;;;0.40;0.30;;;;;;;;;;4901296;29;20140;-67
2022/07/12 08:18:03;;;;;;;0.40;0.30;;;;;;;;;;4901512;29;20052;-70
2022/07/12 08:20:31;;;;;;;0.93;0.40;;;;;;;;;;4901981;29;20049;-71
2022/07/12 08:23:13;;;;;;;0.28;0.20;;;;;;;;;;4907897;29;20056;-70
2022/07/12 08:25:40;;;;;;;0.32;0.32;;;;;;;;;;4909602;29;20116;-68
2022/07/12 08:28:09;;;;;;;0.30;0.30;;;;;;;;;;4903410;29;20074;-68
2022/07/12 08:30:36;;;;;;;0.35;0.35;;;;;;;;;;4910247;29;20052;-71
2022/07/12 08:33:11;;;;;;;0.50;0.30;;;;;;;;;;4909615;29;20064;-71
2022/07/12 08:35:38;;;;;;;0.40;0.40;;;;;;;;;;4905224;29;20052;-70
2022/07/12 08:38:06;;;;;;;0.68;0.40;;;;;;;;;;4906468;29;20500;-70
2022/07/12 08:40:32;;;;;;;0.45;0.45;;;;;;;;;;4902891;29;20099;-70
2022/07/12 08:43:00;;;;;;;0.70;0.60;;;;;;;;;;4849949;29;1580875;-70
2022/07/12 08:45:27;;;;;;;0.52;0.50;;;;;;;;;;4906301;29;20432;-71
2022/07/12 08:47:56;;;;;;;1.13;0.50;;;;;;;;;;4903590;29;20393;-71
2022/07/12 08:50:28;;;;;;;0.77;0.40;;;;;;;;;;4909344;29;20059;-70
2022/07/12 08:52:55;;;;;;;;;;;;;;;;;;4909345;29;20052;-68
2022/07/12 08:55:34;;;;;;;2.05;0.50;;;;;;;;;;4906369;29;19923;-73
2022/07/12 08:58:03;;;;;;;0.45;0.45;;;;;;;;;;4895826;29;20071;-71
2022/07/12 09:00:31;;;;;;;0.60;0.50;;;;;;;;;;4900236;29;20056;-69
2022/07/12 09:03:00;;;;;;;0.75;0.40;;;;;;;;;;4905999;29;20059;-68
2022/07/12 09:05:28;;;;;;;0.57;0.30;;;;;;;;;;4907017;29;20052;-66
2022/07/12 09:08:08;;;;;;;0.65;0.30;;;;;;;;;;4904156;29;20075;-71
2022/07/12 09:10:56;;;;;;;2.97;0.82;;;;;;;;;;4905329;29;20080;-68
2022/07/12 09:13:51;;;;;;;2.20;0.50;;;;;;;;;;4900871;29;20423;-67
2022/07/12 09:16:26;;;;;;;0.55;0.43;;;;;;;;;;4905391;29;20508;-72
2022/07/12 09:19:16;;;;;;;1.50;0.38;;;;;;;;;;4908795;29;20135;-69
2022/07/12 09:21:51;;;;;;;0.20;0.20;;;;;;;;;;4909786;29;20115;-71
2022/07/12 09:24:19;;;;;;;1.15;0.43;;;;;;;;;;4904168;29;20052;-68
2022/07/12 09:26:46;;;;;;;3.10;1.23;;;;;;;;;;4903487;29;20215;-68
2022/07/12 09:29:14;;;;;;;0.63;0.30;;;;;;;;;;4903590;29;20087;-69
2022/07/12 09:36:06;;;;;;;0.32;0.32;;;;;;;;;;4905092;29;20147;-70
2022/07/12 09:37:16;;;;;;;0.35;0.32;;;;;;;;;;4907662;29;20049;-66
2022/07/12 09:39:43;;;;;;;0.40;0.40;;;;;;;;;;4900929;29;20108;-67
2022/07/12 09:42:11;;;;;;;0.55;0.30;;;;;;;;;;4903329;29;20143;-66
2022/07/12 09:44:39;;;;;;;0.20;0.20;;;;;;;;;;4902740;29;20067;-65
2022/07/12 09:47:12;;;;;;;0.90;0.30;;;;;;;;;;4903601;29;20040;-65
2022/07/12 09:49:39;;;;;;;0.30;0.30;;;;;;;;;;4901890;29;20711;-65
2022/07/12 09:52:09;;;;;;;0.40;0.40;;;;;;;;;;4901786;29;20052;-65
2022/07/12 09:54:39;;;;;;;1.10;0.30;;;;;;;;;;4900859;29;20060;-64
2022/07/12 09:57:31;;;;;;;0.30;0.20;;;;;;;;;;4904216;29;20084;-65
2022/07/12 09:59:59;;;;;;;0.40;0.30;;;;;;;;;;4903779;29;20059;-65
2022/07/12 10:02:26;;;;;;;0.32;0.30;;;;;;;;;;4901322;29;20428;-64
2022/07/12 10:04:53;;;;;;;0.40;0.30;;;;;;;;;;4900096;29;20131;-65
2022/07/12 10:07:20;;;;;;;1.20;0.80;;;;;;;;;;4901788;29;20048;-68
2022/07/12 10:09:50;;;;;;;1.50;0.43;;;;;;;;;;4901527;29;20085;-68
2022/07/12 10:12:18;;;;;;;3.75;0.70;;;;;;;;;;4902772;29;20448;-65
2022/07/12 10:14:45;;;;;;;0.50;0.30;;;;;;;;;;4900557;29;20060;-65
2022/07/12 10:17:12;;;;;;;0.25;0.20;;;;;;;;;;4902282;29;20449;-65
2022/07/12 10:19:39;;;;;;;1.08;0.50;;;;;;;;;;4902000;29;20052;-65
2022/07/12 10:22:07;;;;;;;4.05;2.63;;;;;;;;;;4902144;29;20048;-65
2022/07/12 10:24:46;;;;;;;2.40;1.25;;;;;;;;;;4901747;29;20120;-65
2022/07/12 10:27:21;;;;;;;0.90;0.85;;;;;;;;;;4901096;29;20063;-67
2022/07/12 10:29:49;;;;;;;0.88;0.75;;;;;;;;;;4901789;29;20162;-67
2022/07/12 10:32:26;;;;;;;1.30;1.08;;;;;;;;;;4902611;29;20130;-67
2022/07/12 10:35:05;;;;;;;0.43;0.40;;;;;;;;;;4901384;29;20063;-67
2022/07/12 10:37:33;;;;;;;1.25;0.77;;;;;;;;;;4904356;29;20048;-65
2022/07/12 10:40:20;;;;;;;1.10;0.70;;;;;;;;;;4901807;29;20067;-70
2022/07/12 10:43:04;;;;;;;3.38;1.70;;;;;;;;;;4903101;29;20053;-69
2022/07/12 10:45:33;;;;;;;4.97;3.03;;;;;;;;;;4901339;29;20053;-68
2022/07/12 10:48:02;;;;;;;1.92;0.43;;;;;;;;;;4902640;29;20048;-68
2022/07/12 10:50:41;;;;;;;2.28;0.50;;;;;;;;;;4900809;29;20504;-69
2022/07/12 10:53:29;;;;;;;5.15;2.00;;;;;;;;;;4903528;29;20048;-69
2022/07/12 10:56:25;;;;;;;2.30;1.00;;;;;;;;;;4904064;29;20040;-69
2022/07/12 10:58:57;;;;;;;0.52;0.30;;;;;;;;;;4903603;29;20056;-68
2022/07/12 11:01:31;;;;;;;0.65;0.30;;;;;;;;;;4904859;29;20055;-69
2022/07/12 11:04:10;;;;;;;0.10;0.10;;;;;;;;;;4909954;29;20112;-67
2022/07/12 11:06:41;;;;;;;0.22;0.22;;;;;;;;;;4908208;29;20084;-68
2022/07/12 11:09:10;;;;;;;0.68;0.30;;;;;;;;;;4909274;29;20075;-69
2022/07/12 11:11:43;;;;;;;0.20;0.20;;;;;;;;;;4903928;29;20060;-69
2022/07/12 11:14:11;;;;;;;1.20;0.40;;;;;;;;;;4906188;29;20514;-67
2022/07/12 11:16:44;;;;;;;0.30;0.30;;;;;;;;;;4909406;29;20099;-67
2022/07/12 11:19:11;;;;;;;0.20;0.20;;;;;;;;;;4907509;29;20076;-67
2022/07/12 11:21:38;;;;;;;0.22;0.20;;;;;;;;;;4904494;29;20061;-68
2022/07/12 11:24:38;;;;;;;0.10;0.10;;;;;;;;;;4902158;29;20444;-71
2022/07/12 11:27:05;;;;;;;0.90;0.30;;;;;;;;;;4904585;29;20068;-72
2022/07/12 11:29:32;;;;;;;1.35;0.52;;;;;;;;;;4908052;29;20107;-67
2022/07/12 11:32:00;;;;;;;0.60;0.30;;;;;;;;;;4903269;29;20048;-66
2022/07/12 11:34:35;;;;;;;0.60;0.40;;;;;;;;;;4906625;29;20532;-65
2022/07/12 11:37:02;;;;;;;2.00;0.40;;;;;;;;;;4905058;29;20053;-65
2022/07/12 11:39:39;;;;;;;0.88;0.70;;;;;;;;;;4907672;29;20052;-65
2022/07/12 11:42:06;;;;;;;0.30;0.30;;;;;;;;;;4910972;29;20082;-65
2022/07/12 11:44:49;;;;;;;0.38;0.32;;;;;;;;;;4906790;29;20134;-65
2022/07/12 11:47:20;;;;;;;1.80;0.57;;;;;;;;;;4907162;29;20127;-66
2022/07/12 11:49:52;;;;;;;0.25;0.20;;;;;;;;;;4906661;29;20052;-66
2022/07/12 11:52:20;;;;;;;0.32;0.30;;;;;;;;;;4906016;29;20053;-67
2022/07/12 11:54:49;;;;;;;1.33;0.28;;;;;;;;;;4905039;29;20135;-66
2022/07/12 11:57:19;;;;;;;2.53;0.65;;;;;;;;;;4904184;29;20420;-66
2022/07/12 11:59:46;;;;;;;0.30;0.30;;;;;;;;;;4906553;29;20060;-66
2022/07/12 12:02:15;;;;;;;0.20;0.20;;;;;;;;;;4902458;29;20048;-66
2022/07/12 12:04:45;;;;;;;0.32;0.20;;;;;;;;;;4904006;29;20052;-65
2022/07/12 12:07:18;;;;;;;0.20;0.20;;;;;;;;;;4906213;29;20579;-66
2022/07/12 12:10:14;;;;;;;;;;;;;;;;;;4907968;29;20192;-66
2022/07/12 12:12:45;;;;;;;0.50;0.30;;;;;;;;;;4907212;29;19924;-66
2022/07/12 12:15:18;;;;;;;0.83;0.40;;;;;;;;;;4913460;29;20130;-66
2022/07/12 12:17:56;;;;;;;1.65;0.20;;;;;;;;;;4908715;29;20049;-66
2022/07/12 12:20:24;;;;;;;0.20;0.20;;;;;;;;;;4908590;29;20056;-66
2022/07/12 12:22:58;;;;;;;0.43;0.20;;;;;;;;;;4905395;29;20080;-66
2022/07/12 12:25:26;;;;;;;0.13;0.13;;;;;;;;;;4904273;29;20048;-66
2022/07/12 12:27:56;;;;;;;0.75;0.10;;;;;;;;;;4908887;29;20051;-66
2022/07/12 12:30:50;;;;;;;0.30;0.22;;;;;;;;;;4905294;29;20067;-66
2022/07/12 12:33:37;;;;;;;0.10;0.10;;;;;;;;;;4915215;29;20052;-66
2022/07/12 12:36:14;;;;;;;0.50;0.30;;;;;;;;;;4905181;29;20044;-66
2022/07/12 12:38:42;;;;;;;1.33;0.28;;;;;;;;;;4903698;29;20052;-66
2022/07/12 12:41:10;;;;;;;1.08;0.20;;;;;;;;;;4903731;29;20056;-66
2022/07/12 12:43:36;;;;;;;1.08;0.20;;;;;;;;;;4904920;29;20048;-66
2022/07/12 12:46:03;;;;;;;1.08;0.73;;;;;;;;;;4905743;29;20056;-65
2022/07/12 12:48:31;;;;;;;0.20;0.20;;;;;;;;;;4904133;29;20052;-66
2022/07/12 12:51:08;;;;;;;1.60;0.80;;;;;;;;;;4905278;29;20428;-66
2022/07/12 12:53:37;;;;;;;0.10;0.10;;;;;;;;;;4905762;29;20056;-66
2022/07/12 12:56:08;;;;;;;0.95;0.30;;;;;;;;;;4905753;29;20052;-66
2022/07/12 12:58:36;;;;;;;4.32;0.30;;;;;;;;;;4908590;29;20060;-66
2022/07/12 13:01:03;;;;;;;0.98;0.45;;;;;;;;;;4905693;29;20052;-66
2022/07/12 13:03:30;;;;;;;2.63;0.20;;;;;;;;;;4904447;29;20044;-66
2022/07/12 13:05:57;;;;;;;0.10;0.10;;;;;;;;;;4910664;29;20108;-67
2022/07/12 13:08:25;;;;;;;9.32;0.75;;;;;;;;;;4909902;29;20047;-67
2022/07/12 13:13:38;;;;;;;2.03;0.30;;;;;;;;;;4911747;29;20059;-66
2022/07/12 13:16:05;;;;;;;1.35;0.63;;;;;;;;;;4905646;29;20058;-65
2022/07/12 13:18:32;;;;;;;0.63;0.17;;;;;;;;;;4903693;29;20070;-65
2022/07/12 13:21:00;;;;;;;0.63;0.20;;;;;;;;;;4902096;29;20052;-66
2022/07/12 13:23:27;;;;;;;0.20;0.20;;;;;;;;;;4903625;29;20087;-66
2022/07/12 13:25:54;;;;;;;0.30;0.30;;;;;;;;;;4905181;29;20085;-66
2022/07/12 13:28:21;;;;;;;0.20;0.20;;;;;;;;;;4903821;29;20057;-65
2022/07/12 13:30:48;;;;;;;0.95;0.45;;;;;;;;;;4903122;29;20089;-65
2022/07/12 13:33:16;;;;;;;0.90;0.30;;;;;;;;;;4903399;29;20698;-66
2022/07/12 13:35:43;;;;;;;0.30;0.20;;;;;;;;;;4901717;29;20080;-65
2022/07/12 13:38:10;;;;;;;1.13;0.65;;;;;;;;;;4905623;29;20173;-65
2022/07/12 13:40:37;;;;;;;0.32;0.25;;;;;;;;;;4901693;29;20124;-65
2022/07/12 13:43:04;;;;;;;0.25;0.22;;;;;;;;;;4904803;29;20091;-65
2022/07/12 13:45:31;;;;;;;0.52;0.13;;;;;;;;;;4909184;29;20107;-65
2022/07/12 13:48:00;;;;;;;1.17;0.20;;;;;;;;;;4905098;29;20048;-65
2022/07/12 13:50:28;;;;;;;2.60;0.20;;;;;;;;;;4903863;29;20079;-65
2022/07/12 13:52:59;;;;;;;2.65;0.20;;;;;;;;;;4900998;29;20551;-65
2022/07/12 13:55:27;;;;;;;2.08;0.30;;;;;;;;;;4906254;29;20091;-65
2022/07/12 13:57:55;;;;;;;0.70;0.30;;;;;;;;;;4901287;29;20099;-65
2022/07/12 14:00:22;;;;;;;2.13;0.25;;;;;;;;;;4906245;29;20547;-65
2022/07/12 14:02:50;;;;;;;1.65;0.30;;;;;;;;;;4901085;29;20512;-65
2022/07/12 14:05:21;;;;;;;;;;;;;;;;;;4906433;29;20048;-65
2022/07/12 14:07:48;;;;;;;1.35;0.20;;;;;;;;;;4903549;29;19931;-65
2022/07/12 14:10:15;;;;;;;1.60;0.30;;;;;;;;;;4904443;29;20044;-65
2022/07/12 14:12:42;;;;;;;0.10;0.10;;;;;;;;;;4902878;29;20189;-65
2022/07/12 14:15:35;;;;;;;0.82;0.30;;;;;;;;;;4904955;29;20048;-65
2022/07/12 14:18:06;;;;;;;1.55;0.40;;;;;;;;;;4904120;29;20075;-64
2022/07/12 14:20:34;;;;;;;;;;;;;;;;;;4901676;29;20044;-65
2022/07/12 14:23:02;;;;;;;1.02;0.30;;;;;;;;;;4904357;29;20311;-65
2022/07/12 14:25:29;;;;;;;0.30;0.30;;;;;;;;;;4902920;29;20106;-65
2022/07/12 14:27:56;;;;;;;1.60;0.40;;;;;;;;;;4902293;29;20369;-64
2022/07/12 14:30:24;;;;;;;1.95;0.30;;;;;;;;;;4901019;29;20053;-64
2022/07/12 14:32:51;;;;;;;0.30;0.20;;;;;;;;;;4903831;29;20052;-64
2022/07/12 14:35:19;;;;;;;0.30;0.30;;;;;;;;;;4900682;29;20426;-64
2022/07/12 14:37:47;;;;;;;0.47;0.20;;;;;;;;;;4901859;29;20080;-64
2022/07/12 14:40:15;;;;;;;1.33;0.43;;;;;;;;;;4908768;29;20695;-64
2022/07/12 14:42:44;;;;;;;1.98;0.60;;;;;;;;;;4903615;29;20799;-64
2022/07/12 14:45:11;;;;;;;0.40;0.25;;;;;;;;;;4907072;29;20143;-64
2022/07/12 14:47:38;;;;;;;1.27;0.65;;;;;;;;;;4907959;29;20486;-64
2022/07/12 14:50:07;;;;;;;0.20;0.20;;;;;;;;;;4908572;29;20136;-64
2022/07/12 14:52:33;;;;;;;2.25;0.40;;;;;;;;;;4905677;29;20059;-64
2022/07/12 14:55:00;;;;;;;1.67;0.35;;;;;;;;;;4907903;29;20068;-64
2022/07/12 14:57:27;;;;;;;0.30;0.30;;;;;;;;;;4909875;29;20063;-64
2022/07/12 14:59:53;;;;;;;0.20;0.20;;;;;;;;;;4904542;29;20087;-63
2022/07/12 15:02:20;;;;;;;1.33;0.30;;;;;;;;;;4906299;29;20131;-63